Time;durP1;ratioP1;P1;durP2;ratioP2;P2;SDS_P1;SDS_P2;PMS_P1;PMS_P2;Temp;Humidity;BMP_temperature;BMP_pressure;BME280_temperature;BME280_humidity;BME280_pressure;Samples;Min_cycle;Max_cycle;Signal;HPM_P1;HPM_P2
2021/08/16 00:02:01;;;;;;;2.95;1.45;;;18.40;52.20;;;;;;5077315;28;20024;-75
2021/08/16 00:04:29;;;;;;;3.72;1.60;;;18.50;54.00;;;;;;5076887;28;20025;-73
2021/08/16 00:06:59;;;;;;;5.07;1.30;;;18.60;53.80;;;;;;5078136;28;20047;-71
2021/08/16 00:09:26;;;;;;;1.92;1.10;;;18.60;52.40;;;;;;5076360;28;20065;-74
2021/08/16 00:11:54;;;;;;;2.40;1.17;;;18.60;52.90;;;;;;5076463;28;20032;-70
2021/08/16 00:14:21;;;;;;;2.83;1.40;;;18.70;53.40;;;;;;5076265;28;20094;-73
2021/08/16 00:16:49;;;;;;;4.88;1.45;;;18.80;52.80;;;;;;5077481;28;20021;-72
2021/08/16 00:19:16;;;;;;;5.10;1.77;;;18.90;50.90;;;;;;5076959;28;20023;-73
2021/08/16 00:21:43;;;;;;;2.80;1.38;;;19.10;52.40;;;;;;5089931;28;20032;-69
2021/08/16 00:24:11;;;;;;;5.05;1.30;;;19.30;51.00;;;;;;5093334;28;20026;-76
2021/08/16 00:26:38;;;;;;;2.00;1.13;;;19.20;51.40;;;;;;5093402;28;20020;-70
2021/08/16 00:29:06;;;;;;;4.10;1.60;;;19.20;51.70;;;;;;5093351;28;20074;-73
2021/08/16 00:31:33;;;;;;;2.80;0.98;;;19.30;52.00;;;;;;5094023;28;20028;-75
2021/08/16 00:34:00;;;;;;;5.57;1.58;;;19.20;52.20;;;;;;5092427;28;20146;-73
2021/08/16 00:36:28;;;;;;;6.25;1.20;;;19.20;51.70;;;;;;5093366;28;20016;-73
2021/08/16 00:38:56;;;;;;;7.63;1.23;;;19.30;52.00;;;;;;5093403;28;20032;-71
2021/08/16 00:41:23;;;;;;;4.78;1.15;;;19.40;51.60;;;;;;5096551;28;20099;-75
2021/08/16 00:43:52;;;;;;;1.27;1.00;;;19.60;51.10;;;;;;5093960;28;20298;-71
2021/08/16 00:46:20;;;;;;;1.83;1.15;;;19.60;50.10;;;;;;5096213;28;20097;-72
2021/08/16 00:48:47;;;;;;;7.38;1.48;;;19.60;51.30;;;;;;5097551;28;20106;-72
2021/08/16 00:51:15;;;;;;;4.68;1.40;;;19.70;50.90;;;;;;5097305;28;20020;-71
2021/08/16 00:53:47;;;;;;;8.00;1.42;;;19.70;50.30;;;;;;5097459;28;20027;-73
2021/08/16 00:56:14;;;;;;;8.13;1.30;;;19.60;51.20;;;;;;5097263;28;20032;-74
2021/08/16 00:58:42;;;;;;;5.90;0.93;;;19.70;51.10;;;;;;5096677;28;20115;-72
2021/08/16 01:01:11;;;;;;;12.73;1.38;;;19.70;49.40;;;;;;5097350;28;20012;-68
2021/08/16 01:03:38;;;;;;;9.95;1.45;;;19.80;50.70;;;;;;5097902;28;20035;-74
2021/08/16 01:06:06;;;;;;;3.53;1.40;;;19.90;50.60;;;;;;5097011;28;20035;-72
2021/08/16 01:08:34;;;;;;;9.98;1.25;;;19.90;48.90;;;;;;5097214;28;20032;-71
2021/08/16 01:11:01;;;;;;;2.63;1.33;;;20.00;50.10;;;;;;5097486;28;20462;-75
2021/08/16 01:13:29;;;;;;;4.97;1.10;;;20.20;48.20;;;;;;5096337;28;20032;-72
2021/08/16 01:16:06;;;;;;;8.77;1.33;;;20.30;47.80;;;;;;5085524;28;20036;-75
2021/08/16 01:18:35;;;;;;;6.90;1.25;;;20.40;48.80;;;;;;5076740;28;20039;-71
2021/08/16 01:21:04;;;;;;;6.78;1.30;;;20.60;45.80;;;;;;5076647;28;20036;-74
2021/08/16 01:23:33;;;;;;;2.72;1.30;;;20.60;47.90;;;;;;5068204;28;20032;-71
2021/08/16 01:26:00;;;;;;;4.82;1.02;;;20.40;49.20;;;;;;5070228;28;20032;-72
2021/08/16 01:28:28;;;;;;;5.10;1.40;;;20.50;48.80;;;;;;5067332;28;20466;-67
2021/08/16 01:31:05;;;;;;;9.90;1.42;;;20.60;49.30;;;;;;5073523;28;20041;-73
2021/08/16 01:33:34;;;;;;;2.92;1.00;;;20.60;49.60;;;;;;5069025;28;20040;-68
2021/08/16 01:36:03;;;;;;;8.95;2.03;;;20.80;48.00;;;;;;5066329;28;20033;-71
2021/08/16 01:38:35;;;;;;;12.20;1.52;;;20.90;48.00;;;;;;5068994;28;20021;-68
2021/08/16 01:41:06;;;;;;;2.97;1.20;;;20.90;48.90;;;;;;5070893;28;20505;-68
2021/08/16 01:43:37;;;;;;;7.80;1.13;;;21.00;46.20;;;;;;5072118;28;20024;-66
2021/08/16 01:46:05;;;;;;;12.32;1.83;;;21.10;46.50;;;;;;5065930;28;20052;-70
2021/08/16 01:48:33;;;;;;;11.45;2.20;;;21.00;48.80;;;;;;5067648;28;20158;-70
2021/08/16 01:51:00;;;;;;;5.40;1.90;;;21.00;47.40;;;;;;5068705;28;20040;-71
2021/08/16 01:53:28;;;;;;;12.70;1.30;;;21.10;48.10;;;;;;5068446;28;20166;-70
2021/08/16 01:55:59;;;;;;;8.65;1.30;;;21.30;47.50;;;;;;5061509;28;20025;-72
2021/08/16 01:58:27;;;;;;;5.65;0.82;;;21.20;47.80;;;;;;5068418;28;20096;-69
2021/08/16 02:00:55;;;;;;;2.50;0.88;;;21.30;47.70;;;;;;5068909;28;20028;-68
2021/08/16 02:03:23;;;;;;;4.40;1.25;;;21.20;47.90;;;;;;5068149;28;20021;-68
2021/08/16 02:05:50;;;;;;;4.13;1.88;;;21.30;46.00;;;;;;5062554;28;20032;-69
2021/08/16 02:08:35;;;;;;;3.15;1.00;;;21.50;45.00;;;;;;5068576;28;20495;-67
2021/08/16 02:11:09;;;;;;;2.22;0.95;;;21.50;47.00;;;;;;5068423;28;20128;-66
2021/08/16 02:13:36;;;;;;;6.53;0.95;;;21.50;46.50;;;;;;5068512;28;20112;-64
2021/08/16 02:16:07;;;;;;;2.50;0.80;;;21.30;47.10;;;;;;5063432;28;20024;-67
2021/08/16 02:18:34;;;;;;;4.47;0.90;;;21.30;47.20;;;;;;5067851;28;20082;-65
2021/08/16 02:21:02;;;;;;;2.58;0.90;;;21.30;47.30;;;;;;5063973;28;20029;-67
2021/08/16 02:23:33;;;;;;;5.38;1.45;;;21.40;47.00;;;;;;5068223;28;20095;-68
2021/08/16 02:26:00;;;;;;;4.68;1.10;;;21.50;45.90;;;;;;5061385;28;20055;-70
2021/08/16 02:28:29;;;;;;;2.90;0.88;;;21.50;46.70;;;;;;5067948;28;20033;-65
2021/08/16 02:30:57;;;;;;;3.35;1.00;;;21.40;46.40;;;;;;5068559;28;20094;-65
2021/08/16 02:33:24;;;;;;;6.20;0.98;;;21.50;46.30;;;;;;5067906;28;20033;-67
2021/08/16 02:35:52;;;;;;;3.90;0.93;;;21.60;45.70;;;;;;5062950;28;20032;-69
2021/08/16 02:38:20;;;;;;;4.00;1.30;;;21.50;46.00;;;;;;5066047;28;20028;-67
2021/08/16 02:40:53;;;;;;;1.48;0.98;;;21.70;44.90;;;;;;5068160;28;20035;-66
2021/08/16 02:43:27;;;;;;;2.58;1.02;;;21.70;45.90;;;;;;5068069;28;20554;-70
2021/08/16 02:45:55;;;;;;;2.00;1.05;;;21.80;45.90;;;;;;5062155;28;20043;-68
2021/08/16 02:48:31;;;;;;;4.78;1.02;;;21.90;45.80;;;;;;5067909;28;20116;-69
2021/08/16 02:50:59;;;;;;;1.48;0.82;;;22.20;44.60;;;;;;5066107;28;20379;-69
2021/08/16 02:53:27;;;;;;;5.32;0.90;;;22.30;44.30;;;;;;5068062;28;20525;-69
2021/08/16 02:55:57;;;;;;;3.97;1.27;;;22.00;45.60;;;;;;5062287;28;20097;-72
2021/08/16 02:58:25;;;;;;;4.25;0.93;;;21.80;45.90;;;;;;5066905;28;20108;-70
2021/08/16 03:00:53;;;;;;;11.15;1.15;;;21.90;44.40;;;;;;5050014;28;20033;-71
2021/08/16 03:03:21;;;;;;;3.45;1.15;;;22.00;45.40;;;;;;5069202;28;20017;-70
2021/08/16 03:05:49;;;;;;;6.32;1.02;;;21.90;44.10;;;;;;5062704;28;20026;-71
2021/08/16 03:08:17;;;;;;;4.93;0.98;;;22.20;42.80;;;;;;5063391;28;20025;-70
2021/08/16 03:10:45;;;;;;;3.72;1.40;;;22.20;44.70;;;;;;5066944;28;20024;-64
2021/08/16 03:13:12;;;;;;;4.00;1.58;;;22.20;45.30;;;;;;5066322;28;20127;-67
2021/08/16 03:15:40;;;;;;;3.03;0.98;;;22.10;45.40;;;;;;5061335;28;20028;-70
2021/08/16 03:18:10;;;;;;;2.45;0.80;;;22.10;45.50;;;;;;5067049;28;20029;-69
2021/08/16 03:20:38;;;;;;;4.38;0.98;;;22.20;44.00;;;;;;5066281;28;20024;-70
2021/08/16 03:23:05;;;;;;;1.80;0.90;;;22.30;43.70;;;;;;5066937;28;20032;-70
2021/08/16 03:25:43;;;;;;;2.60;1.08;;;22.50;43.90;;;;;;5061343;28;20044;-68
2021/08/16 03:28:17;;;;;;;4.95;1.30;;;22.40;44.50;;;;;;5066009;28;20032;-69
2021/08/16 03:30:54;;;;;;;4.75;0.88;;;22.30;44.50;;;;;;5065517;28;20044;-66
2021/08/16 03:33:22;;;;;;;3.22;1.00;;;22.30;44.70;;;;;;5063867;28;20048;-69
2021/08/16 03:35:50;;;;;;;3.42;0.80;;;22.40;42.70;;;;;;5061832;28;20619;-67
2021/08/16 03:38:35;;;;;;;3.22;0.93;;;22.60;41.30;;;;;;5067435;28;20132;-74
2021/08/16 03:41:03;;;;;;;2.65;0.80;;;22.60;44.10;;;;;;5066906;28;20024;-69
2021/08/16 03:43:38;;;;;;;4.35;0.70;;;22.60;44.20;;;;;;5067454;28;20407;-69
2021/08/16 03:46:11;;;;;;;1.92;0.80;;;22.60;43.80;;;;;;5061985;28;20031;-71
2021/08/16 03:48:39;;;;;;;0.80;0.60;;;22.70;44.10;;;;;;5064255;28;20047;-63
2021/08/16 03:51:07;;;;;;;3.28;1.00;;;22.60;43.60;;;;;;5066830;28;20394;-68
2021/08/16 03:53:34;;;;;;;7.82;0.93;;;23.10;42.70;;;;;;5068782;28;20497;-71
2021/08/16 03:56:21;;;;;;;2.47;0.82;;;23.30;43.20;;;;;;5062847;28;20401;-73
2021/08/16 03:58:49;;;;;;;2.40;1.00;;;23.40;42.70;;;;;;5064438;28;20025;-71
2021/08/16 04:01:20;;;;;;;2.78;1.10;;;23.40;42.00;;;;;;5066332;28;20025;-70
2021/08/16 04:04:26;;;;;;;1.30;0.55;;;23.60;42.00;;;;;;5066516;28;20023;-65
2021/08/16 04:07:00;;;;;;;3.25;1.15;;;23.50;40.90;;;;;;4992110;28;20538;-66
2021/08/16 04:09:50;;;;;;;0.98;0.60;;;23.40;43.50;;;;;;5066685;28;20075;-69
2021/08/16 04:12:28;;;;;;;3.63;0.82;;;23.40;42.70;;;;;;5066211;28;20021;-69
2021/08/16 04:14:55;;;;;;;5.28;1.00;;;23.50;43.00;;;;;;5057720;28;20043;-66
2021/08/16 04:17:23;;;;;;;4.53;1.45;;;23.50;41.20;;;;;;5065421;28;20048;-67
2021/08/16 04:19:51;;;;;;;2.97;1.00;;;23.60;42.70;;;;;;5065277;28;20558;-64
2021/08/16 04:22:18;;;;;;;2.85;1.00;;;23.60;43.30;;;;;;5065854;28;20063;-68
2021/08/16 04:24:46;;;;;;;2.42;0.95;;;23.70;41.60;;;;;;5064263;28;20025;-62
2021/08/16 04:27:14;;;;;;;1.48;0.63;;;23.70;42.70;;;;;;5062848;28;20040;-66
2021/08/16 04:29:41;;;;;;;1.48;0.77;;;23.70;41.50;;;;;;5065975;28;20060;-69
2021/08/16 04:32:10;;;;;;;1.90;0.80;;;23.60;39.60;;;;;;5065470;28;20024;-68
2021/08/16 04:34:53;;;;;;;1.25;0.70;;;23.50;43.40;;;;;;5064735;28;20059;-66
2021/08/16 04:37:24;;;;;;;2.03;0.77;;;23.40;40.70;;;;;;5063721;28;20617;-63
2021/08/16 04:39:52;;;;;;;10.68;1.00;;;23.70;40.80;;;;;;5066075;28;20097;-68
2021/08/16 04:42:19;;;;;;;3.92;1.05;;;23.80;37.40;;;;;;5064080;28;20411;-65
2021/08/16 04:44:53;;;;;;;2.53;1.00;;;24.00;39.20;;;;;;5063977;28;20475;-65
2021/08/16 04:47:21;;;;;;;3.55;1.50;;;24.00;39.60;;;;;;5064064;28;20024;-64
2021/08/16 04:49:49;;;;;;;4.18;1.45;;;24.10;37.00;;;;;;5064995;28;20009;-68
2021/08/16 04:52:17;;;;;;;3.13;1.10;;;24.30;38.90;;;;;;5065307;28;20021;-64
2021/08/16 04:54:45;;;;;;;6.40;1.20;;;24.30;38.10;;;;;;5063645;28;20028;-67
2021/08/16 04:57:13;;;;;;;8.00;1.52;;;24.30;35.50;;;;;;5062166;28;20166;-65
2021/08/16 04:59:42;;;;;;;8.57;1.70;;;24.40;35.50;;;;;;5063489;28;20028;-65
2021/08/16 05:02:22;;;;;;;1.88;0.90;;;24.40;35.90;;;;;;5065029;28;20047;-65
2021/08/16 05:04:55;;;;;;;15.07;2.90;;;24.40;35.20;;;;;;5061791;28;20068;-70
2021/08/16 05:07:23;;;;;;;6.60;1.25;;;24.40;37.60;;;;;;5065319;28;20044;-73
2021/08/16 05:09:54;;;;;;;5.88;1.27;;;23.70;38.80;;;;;;5066390;28;20068;-74
2021/08/16 05:12:26;;;;;;;2.35;0.90;;;23.50;40.10;;;;;;5066151;28;20082;-72
2021/08/16 05:14:57;;;;;;;1.58;1.15;;;23.40;39.80;;;;;;5063432;28;20040;-63
2021/08/16 05:17:25;;;;;;;4.15;0.73;;;23.30;40.00;;;;;;5064141;28;20035;-70
2021/08/16 05:19:53;;;;;;;6.32;1.10;;;23.40;41.20;;;;;;5066856;28;20050;-67
2021/08/16 05:22:21;;;;;;;5.10;1.00;;;23.50;41.50;;;;;;5065717;28;20029;-69
2021/08/16 05:24:49;;;;;;;4.78;0.90;;;23.50;41.10;;;;;;5063253;28;20028;-69
2021/08/16 05:27:17;;;;;;;4.78;1.65;;;23.70;39.30;;;;;;5062716;28;20352;-67
2021/08/16 05:30:14;;;;;;;4.90;1.17;;;23.80;40.50;;;;;;5065732;28;20049;-70
2021/08/16 05:32:42;;;;;;;3.40;1.00;;;23.90;40.30;;;;;;5057819;28;20127;-64
2021/08/16 05:35:13;;;;;;;3.92;0.80;;;23.90;40.40;;;;;;5065510;28;20398;-68
2021/08/16 05:37:42;;;;;;;3.22;0.93;;;23.90;40.50;;;;;;5069446;28;20024;-66
2021/08/16 05:40:10;;;;;;;2.55;0.80;;;23.90;40.40;;;;;;5069449;28;20039;-68
2021/08/16 05:42:38;;;;;;;1.77;0.77;;;23.90;38.60;;;;;;5069118;28;20021;-68
2021/08/16 05:45:11;;;;;;;2.03;0.82;;;23.90;41.00;;;;;;5066623;28;20050;-70
2021/08/16 05:47:39;;;;;;;5.40;0.82;;;24.00;41.20;;;;;;5069881;28;20136;-69
2021/08/16 05:50:07;;;;;;;5.80;0.90;;;23.90;40.40;;;;;;5070283;28;20055;-69
2021/08/16 05:52:35;;;;;;;1.83;0.75;;;24.00;40.70;;;;;;5069147;28;20402;-65
2021/08/16 05:55:03;;;;;;;3.35;0.90;;;23.90;41.50;;;;;;5063434;28;20087;-65
2021/08/16 05:57:31;;;;;;;3.47;0.90;;;23.90;40.90;;;;;;5066983;28;20029;-66
2021/08/16 05:59:59;;;;;;;5.65;1.10;;;23.90;40.30;;;;;;5068312;28;20020;-66
2021/08/16 06:02:26;;;;;;;4.80;1.23;;;23.90;40.60;;;;;;5068759;28;20025;-68
2021/08/16 06:05:04;;;;;;;2.40;0.70;;;23.70;40.10;;;;;;5066183;28;20107;-66
2021/08/16 06:07:39;;;;;;;3.95;1.20;;;23.80;40.60;;;;;;5068019;28;20031;-63
2021/08/16 06:10:08;;;;;;;1.02;0.57;;;23.70;41.70;;;;;;5068004;28;20031;-60
2021/08/16 06:12:36;;;;;;;2.17;0.88;;;23.60;41.40;;;;;;5069918;28;20024;-66
2021/08/16 06:15:05;;;;;;;1.77;0.93;;;23.60;40.90;;;;;;5065013;28;20124;-66
2021/08/16 06:17:37;;;;;;;1.15;0.57;;;23.60;42.80;;;;;;5067563;28;20027;-64
2021/08/16 06:20:10;;;;;;;4.07;0.80;;;23.50;42.20;;;;;;5067406;28;20059;-68
2021/08/16 06:22:39;;;;;;;6.97;0.93;;;23.40;41.50;;;;;;5067899;28;20455;-65
2021/08/16 06:25:07;;;;;;;1.83;0.73;;;23.40;42.80;;;;;;5064838;28;20131;-62
2021/08/16 06:27:38;;;;;;;2.25;1.00;;;23.40;43.10;;;;;;5066271;28;20031;-65
2021/08/16 06:30:06;;;;;;;6.05;0.68;;;23.30;42.00;;;;;;5067884;28;20069;-64
2021/08/16 06:32:36;;;;;;;1.15;0.43;;;23.20;43.20;;;;;;5068000;28;20382;-66
2021/08/16 06:35:05;;;;;;;3.35;0.77;;;23.10;42.70;;;;;;5064097;28;20887;-65
2021/08/16 06:37:33;;;;;;;8.10;1.10;;;23.00;43.20;;;;;;5066484;28;21204;-67
2021/08/16 06:40:00;;;;;;;2.95;0.90;;;22.90;42.20;;;;;;5066442;28;20082;-66
2021/08/16 06:42:29;;;;;;;1.83;1.08;;;22.70;42.50;;;;;;5066187;28;20062;-65
2021/08/16 06:45:01;;;;;;;7.25;0.98;;;22.50;44.00;;;;;;5063340;28;20025;-66
2021/08/16 06:47:29;;;;;;;4.78;0.65;;;22.30;43.90;;;;;;5063955;28;20067;-70
2021/08/16 06:49:56;;;;;;;10.48;1.38;;;22.10;44.80;;;;;;5067282;28;20152;-70
2021/08/16 06:52:31;;;;;;;2.78;0.73;;;21.90;43.80;;;;;;5066855;28;20453;-66
2021/08/16 06:54:59;;;;;;;5.18;1.15;;;21.80;44.90;;;;;;5062665;28;20068;-64
2021/08/16 06:57:27;;;;;;;2.38;1.00;;;21.60;45.10;;;;;;5064961;28;20090;-64
2021/08/16 06:59:55;;;;;;;3.20;0.90;;;21.40;45.90;;;;;;5066121;28;20069;-66
2021/08/16 07:02:23;;;;;;;6.65;0.95;;;21.30;46.70;;;;;;5067250;28;20027;-69
2021/08/16 07:04:50;;;;;;;2.88;0.98;;;21.10;46.90;;;;;;5063022;28;20060;-64
2021/08/16 07:07:18;;;;;;;2.95;0.73;;;21.10;45.60;;;;;;5063533;28;20056;-68
2021/08/16 07:09:49;;;;;;;2.40;0.90;;;21.00;46.20;;;;;;5067209;28;20020;-66
2021/08/16 07:12:16;;;;;;;1.73;0.73;;;20.80;46.60;;;;;;5067490;28;20033;-67
2021/08/16 07:14:44;;;;;;;6.72;1.35;;;20.70;47.60;;;;;;5066311;28;20032;-68
2021/08/16 07:17:12;;;;;;;4.45;0.82;;;20.60;45.50;;;;;;5062811;28;20028;-66
2021/08/16 07:19:40;;;;;;;2.90;0.82;;;20.50;48.30;;;;;;5069927;28;20046;-65
2021/08/16 07:22:08;;;;;;;3.58;0.63;;;20.30;49.70;;;;;;5066876;28;20079;-68
2021/08/16 07:24:35;;;;;;;2.33;0.93;;;20.30;49.10;;;;;;5066292;28;20039;-67
2021/08/16 07:27:03;;;;;;;3.65;0.80;;;20.20;49.20;;;;;;5063180;28;20019;-68
2021/08/16 07:29:30;;;;;;;2.80;0.82;;;20.10;49.30;;;;;;5066576;28;20049;-67
2021/08/16 07:31:58;;;;;;;2.63;0.90;;;20.10;50.00;;;;;;5066412;28;20463;-67
2021/08/16 07:34:26;;;;;;;4.63;1.33;;;20.00;49.70;;;;;;5063602;28;20047;-67
2021/08/16 07:36:54;;;;;;;4.30;1.30;;;19.90;49.10;;;;;;5062790;28;20020;-67
2021/08/16 07:39:22;;;;;;;3.35;0.82;;;19.90;48.90;;;;;;5068439;28;20530;-66
2021/08/16 07:41:50;;;;;;;1.90;0.80;;;19.80;50.90;;;;;;5067897;28;20024;-67
2021/08/16 07:44:18;;;;;;;3.03;1.10;;;19.70;50.30;;;;;;5068566;28;20104;-65
2021/08/16 07:46:45;;;;;;;3.22;0.90;;;19.70;50.60;;;;;;5067859;28;20016;-65
2021/08/16 07:49:13;;;;;;;9.57;1.85;;;19.60;49.70;;;;;;5068239;28;20474;-63
2021/08/16 07:51:41;;;;;;;3.97;1.40;;;19.60;50.80;;;;;;5068637;28;20029;-64
2021/08/16 07:54:08;;;;;;;4.45;1.35;;;19.60;49.40;;;;;;5064829;28;20028;-71
2021/08/16 07:56:38;;;;;;;3.55;1.25;;;19.60;50.30;;;;;;5072136;28;20111;-65
2021/08/16 07:59:05;;;;;;;3.60;1.25;;;19.50;51.40;;;;;;5071056;28;20043;-67
2021/08/16 08:01:33;;;;;;;1.73;0.70;;;19.50;50.90;;;;;;5064461;28;20026;-67
2021/08/16 08:04:01;;;;;;;3.42;1.23;;;19.40;51.20;;;;;;5062413;28;20599;-68
2021/08/16 08:06:29;;;;;;;2.90;1.20;;;19.40;52.00;;;;;;5066767;28;20112;-69
2021/08/16 08:08:59;;;;;;;2.85;0.93;;;19.40;52.10;;;;;;5066811;28;20028;-61
2021/08/16 08:11:27;;;;;;;1.80;0.70;;;19.30;52.50;;;;;;5066673;28;20033;-68
2021/08/16 08:13:55;;;;;;;3.50;1.15;;;19.30;52.70;;;;;;5063346;28;20051;-68
2021/08/16 08:16:23;;;;;;;1.10;0.57;;;19.30;52.60;;;;;;5068217;28;20712;-62
2021/08/16 08:18:50;;;;;;;2.85;1.08;;;19.20;52.70;;;;;;5069014;28;20025;-71
2021/08/16 08:21:18;;;;;;;1.95;0.70;;;19.20;51.40;;;;;;5068541;28;20029;-66
2021/08/16 08:23:45;;;;;;;3.08;0.90;;;19.20;52.70;;;;;;5068255;28;20021;-69
2021/08/16 08:26:13;;;;;;;3.75;1.00;;;19.10;52.90;;;;;;5068638;28;20025;-69
2021/08/16 08:28:41;;;;;;;2.50;0.75;;;19.00;52.30;;;;;;5068325;28;20444;-69
2021/08/16 08:31:09;;;;;;;4.22;0.98;;;19.00;52.80;;;;;;5068026;28;20375;-71
2021/08/16 08:33:37;;;;;;;1.40;0.70;;;18.90;52.50;;;;;;5067020;28;20326;-67
2021/08/16 08:36:05;;;;;;;1.83;0.73;;;18.90;53.00;;;;;;5067136;28;20024;-67
2021/08/16 08:38:36;;;;;;;1.13;0.70;;;18.80;53.00;;;;;;5068002;28;20088;-67
2021/08/16 08:41:06;;;;;;;1.80;0.80;;;18.80;53.40;;;;;;5067959;28;20565;-65
2021/08/16 08:43:44;;;;;;;2.55;0.68;;;18.70;53.70;;;;;;5067638;28;20017;-67
2021/08/16 08:46:13;;;;;;;1.63;0.80;;;18.70;53.40;;;;;;5061824;28;20524;-68
2021/08/16 08:48:41;;;;;;;2.65;1.05;;;18.70;53.30;;;;;;5065539;28;20039;-66
2021/08/16 08:51:08;;;;;;;2.55;1.35;;;18.60;53.30;;;;;;5059361;28;20059;-64
2021/08/16 08:53:36;;;;;;;4.63;1.17;;;18.60;53.30;;;;;;5068066;28;20452;-69
2021/08/16 08:56:05;;;;;;;1.75;1.13;;;18.60;53.50;;;;;;5061674;28;20058;-66
2021/08/16 08:58:33;;;;;;;2.92;1.52;;;18.60;53.50;;;;;;5063411;28;20033;-67
2021/08/16 09:01:01;;;;;;;2.85;1.25;;;18.60;54.00;;;;;;5064079;28;20074;-64
2021/08/16 09:03:28;;;;;;;2.05;0.95;;;18.50;53.60;;;;;;5065069;28;20025;-64
2021/08/16 09:05:59;;;;;;;3.15;1.10;;;18.50;53.70;;;;;;5063165;28;20031;-68
2021/08/16 09:08:34;;;;;;;1.38;0.85;;;18.50;53.80;;;;;;5067102;28;20048;-72
2021/08/16 09:11:16;;;;;;;6.18;1.52;;;18.50;53.90;;;;;;5070686;28;20021;-69
2021/08/16 09:13:57;;;;;;;3.50;1.20;;;18.50;53.90;;;;;;5064480;28;20225;-68
2021/08/16 09:16:26;;;;;;;3.78;1.48;;;18.50;53.90;;;;;;5066428;28;20107;-72
2021/08/16 09:18:54;;;;;;;2.05;1.17;;;18.50;54.10;;;;;;5068990;28;20131;-69
2021/08/16 09:21:33;;;;;;;2.63;1.58;;;18.50;54.10;;;;;;5068442;28;20467;-68
2021/08/16 09:24:03;;;;;;;2.22;1.23;;;18.40;54.40;;;;;;5064616;28;20047;-70
2021/08/16 09:26:40;;;;;;;4.55;1.65;;;18.50;54.60;;;;;;5069290;28;20024;-66
2021/08/16 09:29:14;;;;;;;3.78;1.33;;;18.50;54.70;;;;;;5068349;28;20048;-71
2021/08/16 09:32:01;;;;;;;1.27;1.08;;;18.40;55.00;;;;;;5068285;28;20044;-70
2021/08/16 09:34:42;;;;;;;3.90;0.98;;;18.40;54.40;;;;;;5064267;28;20417;-70
2021/08/16 09:37:20;;;;;;;2.88;1.88;;;18.40;54.60;;;;;;5068662;28;20063;-66
2021/08/16 09:40:01;;;;;;;1.80;1.10;;;18.40;54.70;;;;;;5068628;28;20078;-67
2021/08/16 09:42:42;;;;;;;2.42;1.02;;;18.30;54.70;;;;;;5068936;28;20463;-68
2021/08/16 09:45:12;;;;;;;3.13;1.42;;;18.30;54.60;;;;;;5057027;28;20368;-65
2021/08/16 09:47:44;;;;;;;2.88;1.33;;;18.30;54.90;;;;;;5066822;28;20486;-66
2021/08/16 09:50:13;;;;;;;6.00;1.50;;;18.20;54.30;;;;;;5065959;28;20466;-67
2021/08/16 09:52:41;;;;;;;4.72;1.48;;;18.20;54.80;;;;;;5069263;28;20058;-66
2021/08/16 09:55:12;;;;;;;3.85;1.27;;;18.20;54.60;;;;;;5063377;28;20041;-70
2021/08/16 09:57:41;;;;;;;3.08;1.38;;;18.20;54.90;;;;;;5067795;28;20035;-70
2021/08/16 10:00:09;;;;;;;3.50;1.58;;;18.10;54.90;;;;;;5069129;28;20028;-70
2021/08/16 10:02:40;;;;;;;3.35;1.48;;;18.10;55.20;;;;;;5071060;28;20120;-69
2021/08/16 10:05:08;;;;;;;3.17;1.40;;;18.10;55.10;;;;;;5071174;28;20180;-69
2021/08/16 10:07:36;;;;;;;2.67;1.50;;;18.10;55.40;;;;;;5070826;28;20039;-67
2021/08/16 10:10:04;;;;;;;3.10;1.58;;;18.10;55.60;;;;;;5069965;28;20025;-71
2021/08/16 10:12:33;;;;;;;6.35;1.13;;;18.10;55.90;;;;;;5070010;28;20028;-69
2021/08/16 10:15:02;;;;;;;5.95;1.65;;;18.10;55.40;;;;;;5069424;28;20170;-66
2021/08/16 10:17:37;;;;;;;5.43;1.60;;;18.00;55.40;;;;;;5069978;28;20391;-68
2021/08/16 10:20:06;;;;;;;4.03;1.55;;;18.00;55.80;;;;;;5070872;28;20029;-70
2021/08/16 10:22:38;;;;;;;4.38;1.88;;;18.00;55.60;;;;;;5070091;28;20032;-68
2021/08/16 10:25:13;;;;;;;5.28;1.60;;;18.00;56.00;;;;;;5061543;28;20032;-71
2021/08/16 10:27:41;;;;;;;3.58;1.23;;;17.90;56.00;;;;;;5070595;28;20025;-66
2021/08/16 10:30:14;;;;;;;6.13;1.17;;;17.90;55.70;;;;;;5070977;28;20181;-73
2021/08/16 10:32:43;;;;;;;3.03;1.20;;;17.90;56.00;;;;;;5069747;28;20032;-66
2021/08/16 10:35:17;;;;;;;2.53;1.45;;;17.90;56.10;;;;;;5067774;28;20475;-70
2021/08/16 10:37:45;;;;;;;3.22;1.23;;;17.90;55.90;;;;;;5066693;28;20066;-70
2021/08/16 10:40:25;;;;;;;3.92;1.95;;;17.90;56.00;;;;;;5069081;28;20123;-71
2021/08/16 10:43:06;;;;;;;3.22;1.23;;;17.90;55.60;;;;;;5068348;28;20024;-69
2021/08/16 10:45:45;;;;;;;4.85;1.05;;;17.90;55.60;;;;;;5067005;28;20044;-71
2021/08/16 10:48:25;;;;;;;2.95;1.42;;;17.90;55.30;;;;;;5064409;28;20137;-67
2021/08/16 10:51:09;;;;;;;1.98;1.10;;;17.80;55.40;;;;;;5068961;28;20741;-70
2021/08/16 10:53:53;;;;;;;2.22;1.30;;;17.90;55.60;;;;;;5068329;28;20078;-68
2021/08/16 10:56:24;;;;;;;2.10;1.05;;;17.80;55.50;;;;;;5068250;28;20033;-70
2021/08/16 10:58:55;;;;;;;2.97;1.10;;;17.80;55.60;;;;;;5062558;28;20032;-73
2021/08/16 11:01:30;;;;;;;1.77;1.10;;;17.80;55.40;;;;;;5067845;28;20071;-68
2021/08/16 11:04:35;;;;;;;2.00;0.90;;;17.80;55.50;;;;;;5067506;28;20094;-70
2021/08/16 11:07:25;;;;;;;2.95;1.08;;;17.80;55.60;;;;;;5065416;28;20466;-70
2021/08/16 11:10:10;;;;;;;2.22;1.00;;;17.80;55.60;;;;;;5067602;28;20146;-70
2021/08/16 11:13:13;;;;;;;3.08;1.10;;;17.70;55.30;;;;;;5069295;28;20504;-67
2021/08/16 11:19:12;;;;;;;3.83;1.45;;;17.80;55.80;;;;;;4977070;28;19933;-70
2021/08/16 11:22:04;;;;;;;2.53;1.25;;;17.80;55.70;;;;;;5065351;28;20334;-71
2021/08/16 11:25:56;;;;;;;4.63;1.33;;;17.70;55.40;;;;;;5067330;28;20066;-66
2021/08/16 11:28:07;;;;;;;4.20;1.15;;;17.70;55.30;;;;;;5054446;28;20028;-72
2021/08/16 11:30:40;;;;;;;1.70;1.00;;;17.70;55.50;;;;;;5073457;28;20052;-73
2021/08/16 11:33:34;;;;;;;2.00;1.00;;;17.70;55.30;;;;;;5072808;28;20456;-70
2021/08/16 11:36:16;;;;;;;2.03;1.10;;;17.60;55.30;;;;;;5069785;28;20495;-65
2021/08/16 11:38:57;;;;;;;2.70;1.00;;;17.60;55.30;;;;;;5071329;28;20027;-65
2021/08/16 11:41:40;;;;;;;1.77;1.17;;;17.70;55.40;;;;;;5071451;28;20021;-64
2021/08/16 11:44:19;;;;;;;2.95;0.82;;;17.60;55.40;;;;;;5070232;28;20375;-65
2021/08/16 11:47:03;;;;;;;2.42;1.13;;;17.60;55.70;;;;;;5070229;28;20467;-69
2021/08/16 11:49:42;;;;;;;3.30;1.15;;;17.60;55.40;;;;;;5071333;28;20113;-63
2021/08/16 11:52:21;;;;;;;2.03;1.08;;;17.50;55.10;;;;;;5069743;28;20028;-71
2021/08/16 11:54:51;;;;;;;1.73;0.80;;;17.50;55.50;;;;;;5069504;28;20074;-64
2021/08/16 11:57:23;;;;;;;4.70;1.30;;;17.50;55.50;;;;;;5066445;28;20078;-66
2021/08/16 11:59:50;;;;;;;;;;;17.50;55.50;;;;;;5068012;28;20116;-69
2021/08/16 12:02:19;;;;;;;2.65;1.33;;;17.50;55.70;;;;;;5068998;28;19908;-73
2021/08/16 12:04:49;;;;;;;2.28;1.15;;;17.50;55.60;;;;;;5068571;28;20024;-68
2021/08/16 12:07:21;;;;;;;4.32;0.98;;;17.40;55.70;;;;;;5065459;28;20040;-72
2021/08/16 12:09:49;;;;;;;4.57;0.90;;;17.40;55.90;;;;;;5066525;28;20079;-68
2021/08/16 12:12:20;;;;;;;2.17;0.85;;;17.40;55.80;;;;;;5068528;28;20039;-69
2021/08/16 12:14:58;;;;;;;1.23;0.90;;;17.40;55.70;;;;;;5068196;28;20041;-65
2021/08/16 12:17:26;;;;;;;2.40;1.10;;;17.30;55.90;;;;;;5068306;28;20098;-68
2021/08/16 12:20:03;;;;;;;1.63;0.90;;;17.30;56.10;;;;;;5068339;28;20045;-68
2021/08/16 12:22:31;;;;;;;3.78;1.10;;;17.30;55.90;;;;;;5067964;28;20376;-67
2021/08/16 12:25:06;;;;;;;2.17;0.80;;;17.30;56.00;;;;;;5067859;28;20027;-65
2021/08/16 12:27:34;;;;;;;3.58;1.35;;;17.30;56.20;;;;;;5067700;28;20028;-65
2021/08/16 12:30:02;;;;;;;5.32;1.30;;;17.20;56.20;;;;;;5067806;28;20056;-65
2021/08/16 12:32:31;;;;;;;1.88;0.90;;;17.30;56.20;;;;;;5067550;28;20493;-65
2021/08/16 12:35:01;;;;;;;1.65;0.90;;;17.20;56.40;;;;;;5066231;28;20044;-69
2021/08/16 12:37:30;;;;;;;1.58;1.00;;;17.20;56.30;;;;;;5067474;28;20028;-67
2021/08/16 12:40:18;;;;;;;2.25;0.98;;;17.20;56.30;;;;;;5067993;28;20107;-68
2021/08/16 12:42:55;;;;;;;1.75;0.95;;;17.20;56.30;;;;;;5072313;28;20104;-70
2021/08/16 12:45:22;;;;;;;2.50;0.80;;;17.20;56.30;;;;;;5072453;28;20038;-67
2021/08/16 12:48:08;;;;;;;1.08;0.65;;;17.20;56.40;;;;;;5072098;28;20021;-68
2021/08/16 12:50:37;;;;;;;1.45;1.10;;;17.20;56.40;;;;;;5071066;28;20025;-67
2021/08/16 12:53:05;;;;;;;1.85;1.13;;;17.20;56.40;;;;;;5072360;28;20511;-68
2021/08/16 12:55:36;;;;;;;2.42;0.80;;;17.10;56.40;;;;;;5073460;28;20094;-69
2021/08/16 12:58:07;;;;;;;2.50;0.77;;;17.10;56.40;;;;;;5071354;28;20497;-71
2021/08/16 13:00:35;;;;;;;1.63;0.80;;;17.10;56.40;;;;;;5076546;28;20078;-69
2021/08/16 13:03:02;;;;;;;2.65;0.90;;;17.10;56.50;;;;;;5076100;28;20024;-66
2021/08/16 13:05:31;;;;;;;1.45;0.82;;;17.10;56.60;;;;;;5071888;28;20040;-73
2021/08/16 13:07:58;;;;;;;2.08;0.88;;;17.10;56.60;;;;;;5073307;28;20552;-67
2021/08/16 13:10:26;;;;;;;1.73;1.00;;;17.10;56.80;;;;;;5076752;28;20024;-72
2021/08/16 13:12:53;;;;;;;1.85;0.73;;;17.10;56.70;;;;;;5073609;28;20497;-65